sensor_id;sensor_type;location;lat;lon;timestamp;P1;durP1;ratioP1;P2;durP2;ratioP2
19867;SDS011;10096;51.112;6.776;2023-02-15T00:01:35;35.70;;;24.10;;
19867;SDS011;10096;51.112;6.776;2023-02-15T00:04:02;35.10;;;22.50;;
19867;SDS011;10096;51.112;6.776;2023-02-15T00:06:30;34.80;;;23.17;;
19867;SDS011;10096;51.112;6.776;2023-02-15T00:08:58;32.30;;;23.33;;
19867;SDS011;10096;51.112;6.776;2023-02-15T00:11:25;37.27;;;23.23;;
19867;SDS011;10096;51.112;6.776;2023-02-15T00:14:15;35.37;;;23.47;;
19867;SDS011;10096;51.112;6.776;2023-02-15T00:16:45;32.87;;;22.97;;
19867;SDS011;10096;51.112;6.776;2023-02-15T00:19:14;34.80;;;24.57;;
19867;SDS011;10096;51.112;6.776;2023-02-15T00:21:42;33.87;;;22.53;;
19867;SDS011;10096;51.112;6.776;2023-02-15T00:24:10;33.83;;;23.17;;
19867;SDS011;10096;51.112;6.776;2023-02-15T00:26:38;34.93;;;23.60;;
19867;SDS011;10096;51.112;6.776;2023-02-15T00:29:06;40.73;;;23.77;;
19867;SDS011;10096;51.112;6.776;2023-02-15T00:31:36;33.90;;;22.77;;
19867;SDS011;10096;51.112;6.776;2023-02-15T00:34:06;32.77;;;23.10;;
19867;SDS011;10096;51.112;6.776;2023-02-15T00:36:36;36.00;;;24.33;;
19867;SDS011;10096;51.112;6.776;2023-02-15T00:39:03;34.90;;;23.93;;
19867;SDS011;10096;51.112;6.776;2023-02-15T00:41:31;37.00;;;24.87;;
19867;SDS011;10096;51.112;6.776;2023-02-15T00:43:58;34.80;;;23.87;;
19867;SDS011;10096;51.112;6.776;2023-02-15T00:46:25;35.77;;;24.03;;
19867;SDS011;10096;51.112;6.776;2023-02-15T00:48:51;34.67;;;25.30;;
19867;SDS011;10096;51.112;6.776;2023-02-15T00:51:20;34.20;;;23.40;;
19867;SDS011;10096;51.112;6.776;2023-02-15T00:53:47;34.20;;;23.00;;
19867;SDS011;10096;51.112;6.776;2023-02-15T00:56:14;38.93;;;25.90;;
19867;SDS011;10096;51.112;6.776;2023-02-15T00:58:42;36.57;;;24.53;;
19867;SDS011;10096;51.112;6.776;2023-02-15T01:01:10;36.60;;;24.43;;
19867;SDS011;10096;51.112;6.776;2023-02-15T01:03:38;36.83;;;25.20;;
19867;SDS011;10096;51.112;6.776;2023-02-15T01:06:06;36.47;;;23.93;;
19867;SDS011;10096;51.112;6.776;2023-02-15T01:08:34;35.90;;;23.97;;
19867;SDS011;10096;51.112;6.776;2023-02-15T01:11:02;37.90;;;25.07;;
19867;SDS011;10096;51.112;6.776;2023-02-15T01:13:31;37.40;;;24.70;;
19867;SDS011;10096;51.112;6.776;2023-02-15T01:15:58;39.20;;;25.50;;
19867;SDS011;10096;51.112;6.776;2023-02-15T01:18:25;40.10;;;25.70;;
19867;SDS011;10096;51.112;6.776;2023-02-15T01:20:52;35.97;;;23.43;;
19867;SDS011;10096;51.112;6.776;2023-02-15T01:23:19;39.03;;;25.03;;
19867;SDS011;10096;51.112;6.776;2023-02-15T01:25:48;34.23;;;23.90;;
19867;SDS011;10096;51.112;6.776;2023-02-15T01:28:15;35.73;;;24.87;;
19867;SDS011;10096;51.112;6.776;2023-02-15T01:30:42;33.23;;;23.67;;
19867;SDS011;10096;51.112;6.776;2023-02-15T01:33:09;36.80;;;24.53;;
19867;SDS011;10096;51.112;6.776;2023-02-15T01:35:42;36.13;;;24.50;;
19867;SDS011;10096;51.112;6.776;2023-02-15T01:38:10;36.60;;;24.67;;
19867;SDS011;10096;51.112;6.776;2023-02-15T01:40:37;35.77;;;24.77;;
19867;SDS011;10096;51.112;6.776;2023-02-15T01:43:09;37.17;;;24.33;;
19867;SDS011;10096;51.112;6.776;2023-02-15T01:45:37;34.70;;;24.00;;
19867;SDS011;10096;51.112;6.776;2023-02-15T01:48:11;38.13;;;24.17;;
19867;SDS011;10096;51.112;6.776;2023-02-15T01:50:47;36.73;;;23.63;;
19867;SDS011;10096;51.112;6.776;2023-02-15T01:53:20;38.17;;;25.10;;
19867;SDS011;10096;51.112;6.776;2023-02-15T01:55:52;39.13;;;25.07;;
19867;SDS011;10096;51.112;6.776;2023-02-15T01:58:23;39.27;;;25.27;;
19867;SDS011;10096;51.112;6.776;2023-02-15T02:00:54;34.60;;;22.93;;
19867;SDS011;10096;51.112;6.776;2023-02-15T02:03:24;40.23;;;25.73;;
19867;SDS011;10096;51.112;6.776;2023-02-15T02:06:02;36.00;;;24.07;;
19867;SDS011;10096;51.112;6.776;2023-02-15T02:08:29;38.00;;;24.13;;
19867;SDS011;10096;51.112;6.776;2023-02-15T02:10:57;38.57;;;26.73;;
19867;SDS011;10096;51.112;6.776;2023-02-15T02:13:26;36.33;;;24.37;;
19867;SDS011;10096;51.112;6.776;2023-02-15T02:15:54;35.93;;;24.40;;
19867;SDS011;10096;51.112;6.776;2023-02-15T02:18:31;35.50;;;23.47;;
19867;SDS011;10096;51.112;6.776;2023-02-15T02:21:11;36.93;;;23.43;;
19867;SDS011;10096;51.112;6.776;2023-02-15T02:24:22;36.90;;;24.53;;
19867;SDS011;10096;51.112;6.776;2023-02-15T02:30:22;34.53;;;22.83;;
19867;SDS011;10096;51.112;6.776;2023-02-15T02:36:43;33.47;;;22.73;;
19867;SDS011;10096;51.112;6.776;2023-02-15T02:39:20;36.17;;;24.43;;
19867;SDS011;10096;51.112;6.776;2023-02-15T02:41:56;36.70;;;24.70;;
19867;SDS011;10096;51.112;6.776;2023-02-15T02:44:29;36.27;;;23.90;;
19867;SDS011;10096;51.112;6.776;2023-02-15T02:47:02;36.17;;;23.30;;
19867;SDS011;10096;51.112;6.776;2023-02-15T02:49:35;38.83;;;23.40;;
19867;SDS011;10096;51.112;6.776;2023-02-15T02:52:06;34.20;;;22.90;;
19867;SDS011;10096;51.112;6.776;2023-02-15T02:54:53;36.53;;;24.27;;
19867;SDS011;10096;51.112;6.776;2023-02-15T02:57:21;36.47;;;24.17;;
19867;SDS011;10096;51.112;6.776;2023-02-15T02:59:50;35.97;;;23.67;;
19867;SDS011;10096;51.112;6.776;2023-02-15T03:02:20;34.53;;;24.00;;
19867;SDS011;10096;51.112;6.776;2023-02-15T03:04:50;36.50;;;24.37;;
19867;SDS011;10096;51.112;6.776;2023-02-15T03:07:24;40.23;;;24.97;;
19867;SDS011;10096;51.112;6.776;2023-02-15T03:09:54;39.13;;;24.43;;
19867;SDS011;10096;51.112;6.776;2023-02-15T03:12:24;34.53;;;22.90;;
19867;SDS011;10096;51.112;6.776;2023-02-15T03:14:56;34.17;;;22.80;;
19867;SDS011;10096;51.112;6.776;2023-02-15T03:17:28;34.97;;;22.63;;
19867;SDS011;10096;51.112;6.776;2023-02-15T03:20:03;40.47;;;24.90;;
19867;SDS011;10096;51.112;6.776;2023-02-15T03:22:37;36.10;;;24.43;;
19867;SDS011;10096;51.112;6.776;2023-02-15T03:25:09;38.40;;;23.33;;
19867;SDS011;10096;51.112;6.776;2023-02-15T03:27:42;30.97;;;21.73;;
19867;SDS011;10096;51.112;6.776;2023-02-15T03:30:11;37.30;;;24.33;;
19867;SDS011;10096;51.112;6.776;2023-02-15T03:32:41;38.43;;;24.33;;
19867;SDS011;10096;51.112;6.776;2023-02-15T03:35:09;35.67;;;23.23;;
19867;SDS011;10096;51.112;6.776;2023-02-15T03:37:39;35.03;;;23.00;;
19867;SDS011;10096;51.112;6.776;2023-02-15T03:40:10;36.73;;;22.90;;
19867;SDS011;10096;51.112;6.776;2023-02-15T03:43:00;37.13;;;23.60;;
19867;SDS011;10096;51.112;6.776;2023-02-15T03:45:33;34.37;;;22.47;;
19867;SDS011;10096;51.112;6.776;2023-02-15T03:48:19;36.07;;;23.47;;
19867;SDS011;10096;51.112;6.776;2023-02-15T03:50:48;34.73;;;22.20;;
19867;SDS011;10096;51.112;6.776;2023-02-15T03:53:35;35.27;;;22.77;;
19867;SDS011;10096;51.112;6.776;2023-02-15T03:56:03;37.57;;;22.80;;
19867;SDS011;10096;51.112;6.776;2023-02-15T03:58:32;35.63;;;22.07;;
19867;SDS011;10096;51.112;6.776;2023-02-15T04:01:17;33.97;;;21.07;;
19867;SDS011;10096;51.112;6.776;2023-02-15T04:04:24;37.00;;;22.80;;
19867;SDS011;10096;51.112;6.776;2023-02-15T04:06:54;34.20;;;21.73;;
19867;SDS011;10096;51.112;6.776;2023-02-15T04:09:23;34.73;;;21.97;;
19867;SDS011;10096;51.112;6.776;2023-02-15T04:12:07;34.60;;;22.43;;
19867;SDS011;10096;51.112;6.776;2023-02-15T04:14:34;33.93;;;22.73;;
19867;SDS011;10096;51.112;6.776;2023-02-15T04:17:19;33.53;;;21.30;;
19867;SDS011;10096;51.112;6.776;2023-02-15T04:19:46;34.13;;;22.20;;
19867;SDS011;10096;51.112;6.776;2023-02-15T04:22:30;35.83;;;22.70;;
19867;SDS011;10096;51.112;6.776;2023-02-15T04:25:16;37.30;;;21.63;;
19867;SDS011;10096;51.112;6.776;2023-02-15T04:27:44;34.47;;;22.47;;
19867;SDS011;10096;51.112;6.776;2023-02-15T04:30:13;37.50;;;22.23;;
19867;SDS011;10096;51.112;6.776;2023-02-15T04:32:41;33.83;;;22.83;;
19867;SDS011;10096;51.112;6.776;2023-02-15T04:35:09;31.77;;;20.87;;
19867;SDS011;10096;51.112;6.776;2023-02-15T04:37:36;35.33;;;23.40;;
19867;SDS011;10096;51.112;6.776;2023-02-15T04:40:05;33.27;;;22.40;;
19867;SDS011;10096;51.112;6.776;2023-02-15T04:42:34;37.23;;;24.33;;
19867;SDS011;10096;51.112;6.776;2023-02-15T04:45:01;32.93;;;20.47;;
19867;SDS011;10096;51.112;6.776;2023-02-15T04:47:28;34.47;;;21.53;;
19867;SDS011;10096;51.112;6.776;2023-02-15T04:49:55;33.87;;;21.43;;
19867;SDS011;10096;51.112;6.776;2023-02-15T04:52:23;34.63;;;21.70;;
19867;SDS011;10096;51.112;6.776;2023-02-15T04:54:50;38.40;;;22.90;;
19867;SDS011;10096;51.112;6.776;2023-02-15T04:57:17;34.63;;;22.00;;
19867;SDS011;10096;51.112;6.776;2023-02-15T04:59:47;34.07;;;22.50;;
19867;SDS011;10096;51.112;6.776;2023-02-15T05:02:14;36.23;;;22.33;;
19867;SDS011;10096;51.112;6.776;2023-02-15T05:04:41;35.93;;;22.23;;
19867;SDS011;10096;51.112;6.776;2023-02-15T05:07:08;35.50;;;22.87;;
19867;SDS011;10096;51.112;6.776;2023-02-15T05:09:35;33.80;;;22.07;;
19867;SDS011;10096;51.112;6.776;2023-02-15T05:12:02;35.33;;;22.43;;
19867;SDS011;10096;51.112;6.776;2023-02-15T05:14:29;35.87;;;23.27;;
19867;SDS011;10096;51.112;6.776;2023-02-15T05:16:57;35.00;;;21.73;;
19867;SDS011;10096;51.112;6.776;2023-02-15T05:19:26;32.00;;;21.90;;
19867;SDS011;10096;51.112;6.776;2023-02-15T05:21:53;31.60;;;21.40;;
19867;SDS011;10096;51.112;6.776;2023-02-15T05:24:21;33.43;;;21.87;;
19867;SDS011;10096;51.112;6.776;2023-02-15T05:27:05;33.23;;;21.00;;
19867;SDS011;10096;51.112;6.776;2023-02-15T05:29:51;32.70;;;20.87;;
19867;SDS011;10096;51.112;6.776;2023-02-15T05:32:20;29.70;;;20.97;;
19867;SDS011;10096;51.112;6.776;2023-02-15T05:34:47;36.87;;;22.53;;
19867;SDS011;10096;51.112;6.776;2023-02-15T05:37:14;32.43;;;21.77;;
19867;SDS011;10096;51.112;6.776;2023-02-15T05:39:40;34.37;;;21.37;;
19867;SDS011;10096;51.112;6.776;2023-02-15T05:42:07;33.70;;;21.80;;
19867;SDS011;10096;51.112;6.776;2023-02-15T05:44:34;34.70;;;22.07;;
19867;SDS011;10096;51.112;6.776;2023-02-15T05:47:01;33.73;;;21.63;;
19867;SDS011;10096;51.112;6.776;2023-02-15T05:49:30;32.93;;;21.20;;
19867;SDS011;10096;51.112;6.776;2023-02-15T05:51:57;33.53;;;21.33;;
19867;SDS011;10096;51.112;6.776;2023-02-15T05:54:24;34.13;;;20.40;;
19867;SDS011;10096;51.112;6.776;2023-02-15T05:56:51;34.00;;;20.97;;
19867;SDS011;10096;51.112;6.776;2023-02-15T05:59:18;32.93;;;21.27;;
19867;SDS011;10096;51.112;6.776;2023-02-15T06:01:45;36.00;;;21.23;;
19867;SDS011;10096;51.112;6.776;2023-02-15T06:04:12;32.23;;;19.90;;
19867;SDS011;10096;51.112;6.776;2023-02-15T06:06:40;31.90;;;21.20;;
19867;SDS011;10096;51.112;6.776;2023-02-15T06:09:12;34.17;;;22.10;;
19867;SDS011;10096;51.112;6.776;2023-02-15T06:11:39;31.90;;;20.73;;
19867;SDS011;10096;51.112;6.776;2023-02-15T06:14:07;29.30;;;19.10;;
19867;SDS011;10096;51.112;6.776;2023-02-15T06:16:34;32.30;;;22.27;;
19867;SDS011;10096;51.112;6.776;2023-02-15T06:19:01;32.90;;;20.97;;
19867;SDS011;10096;51.112;6.776;2023-02-15T06:21:28;31.43;;;19.63;;
19867;SDS011;10096;51.112;6.776;2023-02-15T06:23:59;30.93;;;19.93;;
19867;SDS011;10096;51.112;6.776;2023-02-15T06:26:26;33.97;;;20.67;;
19867;SDS011;10096;51.112;6.776;2023-02-15T06:28:53;31.37;;;19.93;;
19867;SDS011;10096;51.112;6.776;2023-02-15T06:31:20;28.37;;;19.20;;
19867;SDS011;10096;51.112;6.776;2023-02-15T06:33:47;32.50;;;20.73;;
19867;SDS011;10096;51.112;6.776;2023-02-15T06:36:14;30.00;;;19.90;;
19867;SDS011;10096;51.112;6.776;2023-02-15T06:38:41;31.83;;;19.80;;
19867;SDS011;10096;51.112;6.776;2023-02-15T06:41:09;29.43;;;19.27;;
19867;SDS011;10096;51.112;6.776;2023-02-15T06:43:37;27.83;;;19.07;;
19867;SDS011;10096;51.112;6.776;2023-02-15T06:46:04;29.30;;;19.93;;
19867;SDS011;10096;51.112;6.776;2023-02-15T06:48:31;29.20;;;18.77;;
19867;SDS011;10096;51.112;6.776;2023-02-15T06:50:58;29.03;;;19.40;;
19867;SDS011;10096;51.112;6.776;2023-02-15T06:53:25;30.23;;;18.77;;
19867;SDS011;10096;51.112;6.776;2023-02-15T06:56:06;30.87;;;20.90;;
19867;SDS011;10096;51.112;6.776;2023-02-15T06:58:35;30.00;;;19.90;;
19867;SDS011;10096;51.112;6.776;2023-02-15T07:01:03;27.67;;;18.43;;
19867;SDS011;10096;51.112;6.776;2023-02-15T07:03:30;27.77;;;19.53;;
19867;SDS011;10096;51.112;6.776;2023-02-15T07:05:58;30.43;;;20.30;;
19867;SDS011;10096;51.112;6.776;2023-02-15T07:08:25;28.57;;;19.47;;
19867;SDS011;10096;51.112;6.776;2023-02-15T07:10:53;28.53;;;20.07;;
19867;SDS011;10096;51.112;6.776;2023-02-15T07:13:43;27.43;;;18.27;;
19867;SDS011;10096;51.112;6.776;2023-02-15T07:16:09;28.07;;;19.70;;
19867;SDS011;10096;51.112;6.776;2023-02-15T07:18:39;27.83;;;19.00;;
19867;SDS011;10096;51.112;6.776;2023-02-15T07:21:06;27.07;;;18.53;;
19867;SDS011;10096;51.112;6.776;2023-02-15T07:23:34;26.77;;;18.10;;
19867;SDS011;10096;51.112;6.776;2023-02-15T07:26:01;26.70;;;19.30;;
19867;SDS011;10096;51.112;6.776;2023-02-15T07:28:28;29.40;;;19.50;;
19867;SDS011;10096;51.112;6.776;2023-02-15T07:30:57;24.37;;;17.00;;
19867;SDS011;10096;51.112;6.776;2023-02-15T07:33:24;23.83;;;17.27;;
19867;SDS011;10096;51.112;6.776;2023-02-15T07:35:52;22.30;;;15.83;;
19867;SDS011;10096;51.112;6.776;2023-02-15T07:38:22;24.43;;;16.53;;
19867;SDS011;10096;51.112;6.776;2023-02-15T07:40:49;22.10;;;16.30;;
19867;SDS011;10096;51.112;6.776;2023-02-15T07:43:23;22.80;;;16.57;;
19867;SDS011;10096;51.112;6.776;2023-02-15T07:45:50;21.57;;;16.57;;
19867;SDS011;10096;51.112;6.776;2023-02-15T07:48:18;21.20;;;16.50;;
19867;SDS011;10096;51.112;6.776;2023-02-15T07:50:45;21.13;;;16.47;;
19867;SDS011;10096;51.112;6.776;2023-02-15T07:53:12;20.23;;;15.70;;
19867;SDS011;10096;51.112;6.776;2023-02-15T07:55:43;21.03;;;16.37;;
19867;SDS011;10096;51.112;6.776;2023-02-15T07:58:09;20.83;;;15.83;;
19867;SDS011;10096;51.112;6.776;2023-02-15T08:00:36;19.33;;;15.70;;
19867;SDS011;10096;51.112;6.776;2023-02-15T08:03:19;19.50;;;16.07;;
19867;SDS011;10096;51.112;6.776;2023-02-15T08:05:51;21.67;;;15.87;;
19867;SDS011;10096;51.112;6.776;2023-02-15T08:08:22;19.63;;;15.00;;
19867;SDS011;10096;51.112;6.776;2023-02-15T08:10:59;19.80;;;16.40;;
19867;SDS011;10096;51.112;6.776;2023-02-15T08:13:45;19.67;;;16.07;;
19867;SDS011;10096;51.112;6.776;2023-02-15T08:16:19;19.73;;;15.43;;
19867;SDS011;10096;51.112;6.776;2023-02-15T08:18:49;21.07;;;15.37;;
19867;SDS011;10096;51.112;6.776;2023-02-15T08:21:16;21.40;;;15.57;;
19867;SDS011;10096;51.112;6.776;2023-02-15T08:23:44;22.23;;;15.57;;
19867;SDS011;10096;51.112;6.776;2023-02-15T08:26:11;21.07;;;15.70;;
19867;SDS011;10096;51.112;6.776;2023-02-15T08:28:38;23.03;;;17.20;;
19867;SDS011;10096;51.112;6.776;2023-02-15T08:31:08;22.87;;;16.83;;
19867;SDS011;10096;51.112;6.776;2023-02-15T08:33:36;19.10;;;15.57;;
19867;SDS011;10096;51.112;6.776;2023-02-15T08:36:08;22.20;;;16.00;;
19867;SDS011;10096;51.112;6.776;2023-02-15T08:38:36;21.97;;;16.97;;
19867;SDS011;10096;51.112;6.776;2023-02-15T08:41:11;23.07;;;16.13;;
19867;SDS011;10096;51.112;6.776;2023-02-15T08:43:41;21.83;;;16.53;;
19867;SDS011;10096;51.112;6.776;2023-02-15T08:46:09;20.80;;;15.37;;
19867;SDS011;10096;51.112;6.776;2023-02-15T08:48:37;20.90;;;15.77;;
19867;SDS011;10096;51.112;6.776;2023-02-15T08:51:10;23.47;;;17.00;;
19867;SDS011;10096;51.112;6.776;2023-02-15T08:53:39;21.93;;;15.80;;
19867;SDS011;10096;51.112;6.776;2023-02-15T08:56:07;21.83;;;16.17;;
19867;SDS011;10096;51.112;6.776;2023-02-15T08:58:35;23.50;;;16.97;;
19867;SDS011;10096;51.112;6.776;2023-02-15T09:01:07;21.33;;;16.10;;
19867;SDS011;10096;51.112;6.776;2023-02-15T09:03:35;22.13;;;15.87;;
19867;SDS011;10096;51.112;6.776;2023-02-15T09:06:02;21.53;;;15.27;;
19867;SDS011;10096;51.112;6.776;2023-02-15T09:08:32;22.50;;;17.03;;
19867;SDS011;10096;51.112;6.776;2023-02-15T09:11:06;23.33;;;15.90;;
19867;SDS011;10096;51.112;6.776;2023-02-15T09:13:34;20.77;;;16.10;;
19867;SDS011;10096;51.112;6.776;2023-02-15T09:16:02;20.03;;;15.70;;
19867;SDS011;10096;51.112;6.776;2023-02-15T09:18:31;20.00;;;14.87;;
19867;SDS011;10096;51.112;6.776;2023-02-15T09:21:04;19.17;;;14.57;;
19867;SDS011;10096;51.112;6.776;2023-02-15T09:23:34;20.00;;;15.33;;
19867;SDS011;10096;51.112;6.776;2023-02-15T09:26:02;19.73;;;15.63;;
19867;SDS011;10096;51.112;6.776;2023-02-15T09:28:30;19.70;;;15.63;;
19867;SDS011;10096;51.112;6.776;2023-02-15T09:31:03;24.57;;;16.63;;
19867;SDS011;10096;51.112;6.776;2023-02-15T09:33:32;22.30;;;16.07;;
19867;SDS011;10096;51.112;6.776;2023-02-15T09:36:01;21.17;;;15.67;;
19867;SDS011;10096;51.112;6.776;2023-02-15T09:38:28;19.57;;;14.87;;
19867;SDS011;10096;51.112;6.776;2023-02-15T09:40:59;19.63;;;15.03;;
19867;SDS011;10096;51.112;6.776;2023-02-15T09:43:38;20.27;;;14.70;;
19867;SDS011;10096;51.112;6.776;2023-02-15T09:46:18;18.30;;;14.17;;
19867;SDS011;10096;51.112;6.776;2023-02-15T09:48:58;20.23;;;15.23;;
19867;SDS011;10096;51.112;6.776;2023-02-15T09:51:45;21.10;;;15.53;;
19867;SDS011;10096;51.112;6.776;2023-02-15T09:54:30;20.53;;;16.50;;
19867;SDS011;10096;51.112;6.776;2023-02-15T09:57:16;20.23;;;14.17;;
19867;SDS011;10096;51.112;6.776;2023-02-15T09:59:55;18.83;;;14.60;;
19867;SDS011;10096;51.112;6.776;2023-02-15T10:02:33;18.13;;;14.10;;
19867;SDS011;10096;51.112;6.776;2023-02-15T10:05:16;17.47;;;13.23;;
19867;SDS011;10096;51.112;6.776;2023-02-15T10:07:58;18.73;;;14.30;;
19867;SDS011;10096;51.112;6.776;2023-02-15T10:10:43;17.47;;;14.10;;
19867;SDS011;10096;51.112;6.776;2023-02-15T10:13:21;19.03;;;14.47;;
19867;SDS011;10096;51.112;6.776;2023-02-15T10:16:01;19.27;;;14.77;;
19867;SDS011;10096;51.112;6.776;2023-02-15T10:18:44;17.57;;;13.93;;
19867;SDS011;10096;51.112;6.776;2023-02-15T10:21:21;17.87;;;14.57;;
19867;SDS011;10096;51.112;6.776;2023-02-15T10:24:08;20.17;;;15.13;;
19867;SDS011;10096;51.112;6.776;2023-02-15T10:26:51;16.33;;;13.53;;
19867;SDS011;10096;51.112;6.776;2023-02-15T10:29:27;17.27;;;13.73;;
19867;SDS011;10096;51.112;6.776;2023-02-15T10:32:03;19.53;;;15.10;;
19867;SDS011;10096;51.112;6.776;2023-02-15T10:34:43;18.80;;;14.03;;
19867;SDS011;10096;51.112;6.776;2023-02-15T10:37:25;18.90;;;14.43;;
19867;SDS011;10096;51.112;6.776;2023-02-15T10:40:20;16.33;;;12.93;;
19867;SDS011;10096;51.112;6.776;2023-02-15T10:43:06;17.10;;;13.83;;
19867;SDS011;10096;51.112;6.776;2023-02-15T10:45:49;17.13;;;14.30;;
19867;SDS011;10096;51.112;6.776;2023-02-15T10:48:39;17.30;;;13.87;;
19867;SDS011;10096;51.112;6.776;2023-02-15T10:51:24;18.90;;;14.73;;
19867;SDS011;10096;51.112;6.776;2023-02-15T10:54:06;19.20;;;14.90;;
19867;SDS011;10096;51.112;6.776;2023-02-15T10:56:44;16.07;;;12.47;;
19867;SDS011;10096;51.112;6.776;2023-02-15T11:02:25;18.50;;;14.43;;
19867;SDS011;10096;51.112;6.776;2023-02-15T11:05:10;16.30;;;13.37;;
19867;SDS011;10096;51.112;6.776;2023-02-15T11:07:57;17.77;;;14.63;;
19867;SDS011;10096;51.112;6.776;2023-02-15T11:10:28;17.43;;;13.67;;
19867;SDS011;10096;51.112;6.776;2023-02-15T11:13:02;19.93;;;15.97;;
19867;SDS011;10096;51.112;6.776;2023-02-15T11:15:36;18.33;;;14.23;;
19867;SDS011;10096;51.112;6.776;2023-02-15T11:18:09;17.43;;;13.63;;
19867;SDS011;10096;51.112;6.776;2023-02-15T11:20:41;18.53;;;13.47;;
19867;SDS011;10096;51.112;6.776;2023-02-15T11:23:15;18.40;;;14.23;;
19867;SDS011;10096;51.112;6.776;2023-02-15T11:25:45;15.60;;;13.47;;
19867;SDS011;10096;51.112;6.776;2023-02-15T11:28:19;16.70;;;13.30;;
19867;SDS011;10096;51.112;6.776;2023-02-15T11:30:51;19.00;;;14.53;;
19867;SDS011;10096;51.112;6.776;2023-02-15T11:33:24;19.93;;;14.43;;
19867;SDS011;10096;51.112;6.776;2023-02-15T11:35:56;18.00;;;14.60;;
19867;SDS011;10096;51.112;6.776;2023-02-15T11:38:31;15.77;;;14.07;;
19867;SDS011;10096;51.112;6.776;2023-02-15T11:40:59;18.17;;;14.83;;
19867;SDS011;10096;51.112;6.776;2023-02-15T11:43:31;18.13;;;14.70;;
19867;SDS011;10096;51.112;6.776;2023-02-15T11:46:02;16.40;;;14.03;;
19867;SDS011;10096;51.112;6.776;2023-02-15T11:48:31;18.60;;;14.97;;
19867;SDS011;10096;51.112;6.776;2023-02-15T11:50:59;16.83;;;14.27;;
19867;SDS011;10096;51.112;6.776;2023-02-15T11:53:28;18.83;;;15.70;;
19867;SDS011;10096;51.112;6.776;2023-02-15T11:56:00;17.30;;;14.67;;
19867;SDS011;10096;51.112;6.776;2023-02-15T11:58:30;17.63;;;14.47;;
19867;SDS011;10096;51.112;6.776;2023-02-15T12:01:02;17.27;;;14.67;;
19867;SDS011;10096;51.112;6.776;2023-02-15T12:03:43;18.50;;;14.83;;
19867;SDS011;10096;51.112;6.776;2023-02-15T12:06:18;17.87;;;14.73;;
19867;SDS011;10096;51.112;6.776;2023-02-15T12:08:52;18.03;;;14.70;;
19867;SDS011;10096;51.112;6.776;2023-02-15T12:11:26;16.87;;;14.37;;
19867;SDS011;10096;51.112;6.776;2023-02-15T12:13:59;17.48;;;14.25;;
19867;SDS011;10096;51.112;6.776;2023-02-15T12:16:28;19.70;;;14.53;;
19867;SDS011;10096;51.112;6.776;2023-02-15T12:19:24;16.58;;;13.98;;
19867;SDS011;10096;51.112;6.776;2023-02-15T12:21:56;17.42;;;14.40;;
19867;SDS011;10096;51.112;6.776;2023-02-15T12:24:25;16.17;;;14.05;;
19867;SDS011;10096;51.112;6.776;2023-02-15T12:27:01;17.80;;;14.53;;
19867;SDS011;10096;51.112;6.776;2023-02-15T12:29:31;17.73;;;14.00;;
19867;SDS011;10096;51.112;6.776;2023-02-15T12:32:05;17.03;;;14.13;;
19867;SDS011;10096;51.112;6.776;2023-02-15T12:34:39;17.27;;;13.53;;
19867;SDS011;10096;51.112;6.776;2023-02-15T12:37:09;19.10;;;14.10;;
19867;SDS011;10096;51.112;6.776;2023-02-15T12:39:50;17.40;;;13.90;;
19867;SDS011;10096;51.112;6.776;2023-02-15T12:42:18;17.10;;;14.52;;
19867;SDS011;10096;51.112;6.776;2023-02-15T12:44:54;18.58;;;14.05;;
19867;SDS011;10096;51.112;6.776;2023-02-15T12:47:23;17.83;;;15.20;;
19867;SDS011;10096;51.112;6.776;2023-02-15T12:53:05;15.45;;;13.52;;
19867;SDS011;10096;51.112;6.776;2023-02-15T12:56:08;16.45;;;13.90;;
19867;SDS011;10096;51.112;6.776;2023-02-15T12:59:03;17.17;;;13.23;;
19867;SDS011;10096;51.112;6.776;2023-02-15T13:01:32;17.55;;;13.55;;
19867;SDS011;10096;51.112;6.776;2023-02-15T13:04:13;17.85;;;14.77;;
19867;SDS011;10096;51.112;6.776;2023-02-15T13:06:48;15.95;;;13.05;;
19867;SDS011;10096;51.112;6.776;2023-02-15T13:09:19;16.35;;;12.80;;
19867;SDS011;10096;51.112;6.776;2023-02-15T13:11:47;19.02;;;13.63;;
19867;SDS011;10096;51.112;6.776;2023-02-15T13:14:16;17.13;;;13.60;;
19867;SDS011;10096;51.112;6.776;2023-02-15T13:16:47;16.45;;;12.70;;
19867;SDS011;10096;51.112;6.776;2023-02-15T13:19:17;15.70;;;13.80;;
19867;SDS011;10096;51.112;6.776;2023-02-15T13:21:51;17.50;;;15.05;;
19867;SDS011;10096;51.112;6.776;2023-02-15T13:24:20;17.92;;;14.52;;
19867;SDS011;10096;51.112;6.776;2023-02-15T13:26:50;17.73;;;14.10;;
19867;SDS011;10096;51.112;6.776;2023-02-15T13:29:21;17.40;;;13.98;;
19867;SDS011;10096;51.112;6.776;2023-02-15T13:31:50;15.55;;;13.50;;
19867;SDS011;10096;51.112;6.776;2023-02-15T13:34:20;14.38;;;12.88;;
19867;SDS011;10096;51.112;6.776;2023-02-15T13:36:54;15.57;;;13.82;;
19867;SDS011;10096;51.112;6.776;2023-02-15T13:39:29;17.58;;;15.20;;
19867;SDS011;10096;51.112;6.776;2023-02-15T13:42:04;16.17;;;14.48;;
19867;SDS011;10096;51.112;6.776;2023-02-15T13:44:51;18.90;;;14.10;;
19867;SDS011;10096;51.112;6.776;2023-02-15T13:47:30;16.48;;;14.18;;
19867;SDS011;10096;51.112;6.776;2023-02-15T13:50:08;15.43;;;12.93;;
19867;SDS011;10096;51.112;6.776;2023-02-15T13:52:51;19.15;;;13.52;;
19867;SDS011;10096;51.112;6.776;2023-02-15T13:55:28;18.20;;;15.07;;
19867;SDS011;10096;51.112;6.776;2023-02-15T13:58:04;16.13;;;12.98;;
19867;SDS011;10096;51.112;6.776;2023-02-15T14:00:56;17.65;;;14.13;;
19867;SDS011;10096;51.112;6.776;2023-02-15T14:03:41;17.63;;;14.05;;
19867;SDS011;10096;51.112;6.776;2023-02-15T14:06:41;18.05;;;13.85;;
19867;SDS011;10096;51.112;6.776;2023-02-15T14:09:20;15.85;;;13.73;;
19867;SDS011;10096;51.112;6.776;2023-02-15T14:11:59;15.75;;;13.23;;
19867;SDS011;10096;51.112;6.776;2023-02-15T14:14:53;15.90;;;12.25;;
19867;SDS011;10096;51.112;6.776;2023-02-15T14:17:43;19.90;;;13.80;;
19867;SDS011;10096;51.112;6.776;2023-02-15T14:20:19;16.23;;;13.45;;
19867;SDS011;10096;51.112;6.776;2023-02-15T14:22:53;16.52;;;14.73;;
19867;SDS011;10096;51.112;6.776;2023-02-15T14:25:33;15.57;;;12.90;;
19867;SDS011;10096;51.112;6.776;2023-02-15T14:28:06;16.27;;;13.75;;
19867;SDS011;10096;51.112;6.776;2023-02-15T14:30:36;15.50;;;13.13;;
19867;SDS011;10096;51.112;6.776;2023-02-15T14:33:05;16.95;;;13.75;;
19867;SDS011;10096;51.112;6.776;2023-02-15T14:35:47;17.02;;;13.80;;
19867;SDS011;10096;51.112;6.776;2023-02-15T14:38:16;16.30;;;13.45;;
19867;SDS011;10096;51.112;6.776;2023-02-15T14:40:54;17.10;;;13.60;;
19867;SDS011;10096;51.112;6.776;2023-02-15T14:43:30;16.77;;;14.13;;
19867;SDS011;10096;51.112;6.776;2023-02-15T14:46:07;16.25;;;13.65;;
19867;SDS011;10096;51.112;6.776;2023-02-15T14:48:42;15.35;;;13.40;;
19867;SDS011;10096;51.112;6.776;2023-02-15T14:57:27;16.05;;;14.32;;
19867;SDS011;10096;51.112;6.776;2023-02-15T15:00:00;17.27;;;14.55;;
19867;SDS011;10096;51.112;6.776;2023-02-15T15:02:43;16.50;;;14.13;;
19867;SDS011;10096;51.112;6.776;2023-02-15T15:05:16;14.57;;;13.10;;
19867;SDS011;10096;51.112;6.776;2023-02-15T15:07:46;15.38;;;13.43;;
19867;SDS011;10096;51.112;6.776;2023-02-15T15:16:29;15.82;;;13.73;;
19867;SDS011;10096;51.112;6.776;2023-02-15T15:22:28;17.20;;;13.77;;